createdAt,value
2019-05-07T00:02:05.633Z,10.54
2019-05-07T00:04:36.454Z,10.47
2019-05-07T00:07:08.673Z,10.40
2019-05-07T00:09:39.247Z,10.39
2019-05-07T00:12:12.434Z,10.37
2019-05-07T00:14:44.345Z,10.33
2019-05-07T00:17:14.370Z,10.27
2019-05-07T00:19:45.305Z,10.25
2019-05-07T00:22:16.102Z,10.25
2019-05-07T00:24:46.507Z,10.25
2019-05-07T00:27:17.509Z,10.26
2019-05-07T00:29:47.950Z,10.35
2019-05-07T00:32:22.077Z,10.34
2019-05-07T00:35:02.671Z,10.37
2019-05-07T00:37:52.364Z,10.38
2019-05-07T00:40:26.015Z,10.41
2019-05-07T00:43:12.045Z,10.43
2019-05-07T00:46:02.152Z,10.44
2019-05-07T00:48:32.925Z,10.40
2019-05-07T00:51:23.542Z,10.41
2019-05-07T00:53:54.676Z,10.41
2019-05-07T00:56:25.990Z,10.41
2019-05-07T00:58:56.879Z,10.39
2019-05-07T01:01:27.204Z,10.46
2019-05-07T01:03:58.013Z,10.46
2019-05-07T01:06:28.404Z,10.41
2019-05-07T01:08:58.765Z,10.39
2019-05-07T01:11:33.544Z,10.38
2019-05-07T01:14:03.729Z,10.37
2019-05-07T01:16:35.160Z,10.36
2019-05-07T01:19:06.605Z,10.34
2019-05-07T01:21:37.396Z,10.30
2019-05-07T01:24:08.125Z,10.31
2019-05-07T01:26:38.445Z,10.34
2019-05-07T01:29:09.523Z,10.31
2019-05-07T01:31:43.105Z,10.35
2019-05-07T01:34:16.477Z,10.49
2019-05-07T01:36:46.829Z,10.62
2019-05-07T01:39:18.514Z,10.52
2019-05-07T01:41:48.867Z,10.46
2019-05-07T01:44:19.160Z,10.56
2019-05-07T01:46:49.953Z,10.56
2019-05-07T01:49:23.885Z,10.51
2019-05-07T01:51:54.958Z,10.43
2019-05-07T01:54:25.363Z,10.73
2019-05-07T01:56:55.892Z,10.88
2019-05-07T01:59:27.388Z,10.57
2019-05-07T02:01:59.289Z,10.45
2019-05-07T02:04:32.694Z,10.36
2019-05-07T02:07:22.693Z,10.30
2019-05-07T02:10:06.468Z,10.28
2019-05-07T02:12:38.074Z,10.30
2019-05-07T02:15:11.832Z,10.28
2019-05-07T02:17:43.078Z,10.57
2019-05-07T02:20:16.022Z,10.42
2019-05-07T02:22:46.302Z,10.34
2019-05-07T02:25:16.851Z,10.32
2019-05-07T02:27:47.132Z,10.48
2019-05-07T02:30:19.232Z,10.33
2019-05-07T02:32:53.940Z,10.33
2019-05-07T02:35:25.601Z,10.60
2019-05-07T02:38:02.921Z,10.55
2019-05-07T02:40:43.070Z,10.38
2019-05-07T02:43:13.914Z,10.48
2019-05-07T02:45:53.734Z,10.27
2019-05-07T02:48:29.095Z,10.44
2019-05-07T02:51:03.875Z,10.36
2019-05-07T02:53:35.714Z,10.49
2019-05-07T02:56:06.151Z,10.29
2019-05-07T02:58:36.682Z,10.50
2019-05-07T03:01:08.165Z,10.26
2019-05-07T03:03:38.953Z,10.27
2019-05-07T03:06:09.270Z,10.18
2019-05-07T03:08:39.865Z,10.36
2019-05-07T03:11:10.114Z,10.39
2019-05-07T03:13:43.217Z,10.30
2019-05-07T03:16:15.418Z,10.39
2019-05-07T03:18:46.260Z,10.27
2019-05-07T03:21:18.214Z,10.17
2019-05-07T03:23:56.142Z,10.23
2019-05-07T03:26:28.189Z,10.09
2019-05-07T03:29:03.903Z,10.13
2019-05-07T03:31:37.942Z,9.85
2019-05-07T03:34:25.625Z,9.90
2019-05-07T03:36:56.922Z,9.79
2019-05-07T03:39:28.984Z,9.89
2019-05-07T03:42:03.173Z,9.57
2019-05-07T03:44:46.002Z,9.63
2019-05-07T03:47:24.170Z,9.71
2019-05-07T03:49:55.126Z,9.70
2019-05-07T03:52:27.298Z,9.75
2019-05-07T03:54:58.005Z,9.81
2019-05-07T03:57:28.801Z,9.64
2019-05-07T03:59:59.616Z,9.60
2019-05-07T04:02:32.867Z,9.78
2019-05-07T04:05:04.357Z,9.59
2019-05-07T04:07:34.320Z,9.58
2019-05-07T04:10:10.005Z,9.44
2019-05-07T04:12:43.844Z,9.50
2019-05-07T04:15:18.795Z,9.41
2019-05-07T04:17:46.617Z,9.29
2019-05-07T04:20:17.724Z,9.34
2019-05-07T04:22:53.590Z,9.27
2019-05-07T04:25:25.764Z,9.19
2019-05-07T04:28:03.458Z,9.19
2019-05-07T04:30:33.294Z,9.18
2019-05-07T04:33:08.556Z,9.13
2019-05-07T04:35:49.590Z,8.98
2019-05-07T04:38:20.022Z,9.06
2019-05-07T04:40:53.503Z,9.05
2019-05-07T04:43:23.384Z,8.93
2019-05-07T04:45:54.010Z,8.84
2019-05-07T04:48:25.509Z,9.03
2019-05-07T04:50:57.396Z,8.93
2019-05-07T04:53:27.683Z,8.74
2019-05-07T04:55:58.524Z,8.92
2019-05-07T04:58:33.875Z,8.83
2019-05-07T05:01:04.322Z,8.89
2019-05-07T05:03:39.164Z,9.10
2019-05-07T05:06:08.993Z,9.06
2019-05-07T05:08:40.186Z,9.03
2019-05-07T05:11:12.739Z,9.06
2019-05-07T05:13:44.479Z,9.01
2019-05-07T05:16:25.579Z,9.30
2019-05-07T05:18:57.032Z,9.01
2019-05-07T05:21:44.145Z,8.98
2019-05-07T05:24:22.198Z,9.05
2019-05-07T05:26:52.701Z,8.97
2019-05-07T05:29:25.355Z,9.18
2019-05-07T05:31:55.658Z,9.11
2019-05-07T05:34:27.329Z,9.21
2019-05-07T05:36:57.639Z,9.05
2019-05-07T05:39:28.632Z,9.30
2019-05-07T05:42:02.409Z,9.26
2019-05-07T05:44:35.582Z,9.19
2019-05-07T05:47:07.289Z,9.28
2019-05-07T05:49:38.398Z,9.37
2019-05-07T05:52:12.346Z,9.49
2019-05-07T05:54:44.388Z,9.71
2019-05-07T05:57:16.366Z,9.70
2019-05-07T06:00:05.679Z,9.80
2019-05-07T06:02:37.718Z,9.89
2019-05-07T06:05:27.623Z,9.87
2019-05-07T06:08:04.131Z,9.97
2019-05-07T06:10:42.542Z,9.78
2019-05-07T06:13:20.387Z,10.03
2019-05-07T06:16:03.085Z,10.18
2019-05-07T06:18:52.605Z,10.06
2019-05-07T06:21:26.213Z,10.19
2019-05-07T06:24:02.236Z,10.23
2019-05-07T06:26:33.091Z,10.39
2019-05-07T06:29:03.816Z,10.28
2019-05-07T06:31:34.340Z,10.33
2019-05-07T06:34:05.092Z,10.32
2019-05-07T06:36:38.482Z,10.42
2019-05-07T06:39:18.267Z,10.50
2019-05-07T06:42:08.101Z,10.38
2019-05-07T06:44:38.411Z,10.28
2019-05-07T06:47:09.462Z,10.23
2019-05-07T06:49:40.183Z,10.38
2019-05-07T06:52:12.223Z,10.42
2019-05-07T06:54:42.857Z,10.39
2019-05-07T06:57:13.812Z,10.43
2019-05-07T06:59:46.119Z,10.48
2019-05-07T07:02:28.078Z,10.70
2019-05-07T07:05:02.835Z,11.16
2019-05-07T07:07:37.668Z,11.44
2019-05-07T07:10:12.010Z,11.65
2019-05-07T07:12:42.618Z,11.91
2019-05-07T07:15:13.320Z,12.06
2019-05-07T07:17:44.720Z,12.09
2019-05-07T07:20:16.579Z,12.03
2019-05-07T07:22:48.579Z,12.05
2019-05-07T07:25:18.932Z,12.16
2019-05-07T07:27:49.228Z,12.13
2019-05-07T07:30:37.470Z,12.14
2019-05-07T07:33:12.020Z,12.21
2019-05-07T07:35:42.817Z,12.28
2019-05-07T07:38:33.785Z,12.22
2019-05-07T07:41:12.764Z,12.14
2019-05-07T07:43:43.651Z,12.31
2019-05-07T07:46:16.524Z,12.54
2019-05-07T07:48:46.645Z,12.78
2019-05-07T07:51:18.618Z,12.97
2019-05-07T07:53:49.281Z,13.09
2019-05-07T07:56:49.074Z,13.48
2019-05-07T07:59:29.555Z,14.16
2019-05-07T08:02:07.966Z,14.74
2019-05-07T08:04:39.267Z,14.67
2019-05-07T08:07:12.216Z,14.09
2019-05-07T08:09:42.962Z,14.14
2019-05-07T08:12:15.779Z,14.59
2019-05-07T08:14:46.139Z,14.93
2019-05-07T08:17:16.469Z,15.63
2019-05-07T08:19:46.822Z,16.33
2019-05-07T08:22:17.589Z,16.80
2019-05-07T08:24:48.038Z,17.38
2019-05-07T08:27:18.394Z,17.71
2019-05-07T08:29:48.743Z,18.32
2019-05-07T08:32:27.971Z,18.59
2019-05-07T08:35:18.015Z,18.30
2019-05-07T08:37:48.948Z,17.68
2019-05-07T08:40:22.078Z,18.17
2019-05-07T08:42:54.154Z,18.32
2019-05-07T08:45:43.188Z,17.98
2019-05-07T08:48:15.896Z,18.33
2019-05-07T08:50:46.435Z,18.05
2019-05-07T08:53:17.110Z,17.93
2019-05-07T08:55:48.333Z,17.94
2019-05-07T08:58:19.887Z,18.52
2019-05-07T09:00:52.302Z,18.25
2019-05-07T09:03:42.958Z,18.03
2019-05-07T09:06:14.399Z,17.32
2019-05-07T09:08:44.727Z,17.08
2019-05-07T09:11:17.506Z,17.56
2019-05-07T09:13:47.896Z,17.92
2019-05-07T09:16:18.424Z,18.09
2019-05-07T09:18:50.215Z,17.89
2019-05-07T09:21:22.712Z,17.69
2019-05-07T09:23:54.466Z,17.38
2019-05-07T09:26:32.935Z,17.19
2019-05-07T09:29:05.945Z,17.11
2019-05-07T09:31:38.220Z,16.77
2019-05-07T09:34:08.576Z,16.92
2019-05-07T09:36:58.848Z,16.93
2019-05-07T09:39:32.415Z,17.10
2019-05-07T09:42:02.852Z,16.53
2019-05-07T09:44:33.204Z,16.66
2019-05-07T09:47:03.962Z,16.56
2019-05-07T09:49:34.352Z,16.60
2019-05-07T09:52:06.077Z,16.87
2019-05-07T09:54:36.982Z,16.92
2019-05-07T09:57:22.751Z,16.80
2019-05-07T09:59:39.821Z,16.64
2019-05-07T10:02:12.303Z,16.50
2019-05-07T10:04:43.650Z,16.30
2019-05-07T10:07:14.063Z,16.34
2019-05-07T10:09:44.382Z,16.09
2019-05-07T10:12:35.493Z,16.11
2019-05-07T10:15:07.312Z,16.08
2019-05-07T10:17:39.633Z,15.92
2019-05-07T10:20:19.241Z,16.20
2019-05-07T10:22:43.790Z,16.26
2019-05-07T10:25:14.479Z,16.17
2019-05-07T10:27:45.418Z,16.29
2019-05-07T10:30:16.449Z,16.44
2019-05-07T10:32:52.495Z,16.62
2019-05-07T10:35:22.966Z,16.90
2019-05-07T10:37:55.310Z,17.28
2019-05-07T10:40:26.475Z,17.29
2019-05-07T10:43:01.490Z,17.31
2019-05-07T10:45:42.170Z,17.55
2019-05-07T10:48:14.851Z,18.08
2019-05-07T10:50:46.794Z,18.01
2019-05-07T10:53:17.075Z,17.44
2019-05-07T10:55:47.424Z,17.63
2019-05-07T10:58:17.864Z,17.34
2019-05-07T11:00:48.678Z,17.68
2019-05-07T11:03:21.905Z,17.87
2019-05-07T11:05:52.344Z,17.65
2019-05-07T11:08:25.567Z,17.63
2019-05-07T11:10:55.675Z,17.93
2019-05-07T11:13:27.424Z,17.98
2019-05-07T11:15:59.844Z,18.40
2019-05-07T11:18:51.614Z,18.53
2019-05-07T11:21:33.459Z,18.19
2019-05-07T11:24:03.699Z,18.39
2019-05-07T11:26:36.034Z,18.15
2019-05-07T11:29:06.308Z,18.02
2019-05-07T11:31:36.905Z,17.93
2019-05-07T11:34:08.996Z,17.67
2019-05-07T11:36:40.258Z,17.44
2019-05-07T11:39:12.237Z,17.45
2019-05-07T11:41:47.923Z,16.96
2019-05-07T11:44:20.002Z,16.79
2019-05-07T11:47:02.981Z,16.91
2019-05-07T11:49:52.469Z,17.00
2019-05-07T11:52:24.444Z,17.19
2019-05-07T11:54:55.122Z,17.44
2019-05-07T11:57:25.683Z,17.63
2019-05-07T11:59:56.049Z,17.54
2019-05-07T12:02:26.759Z,17.63
2019-05-07T12:04:57.107Z,17.53
2019-05-07T12:07:28.386Z,17.61
2019-05-07T12:10:02.836Z,17.83
2019-05-07T12:12:32.558Z,17.54
2019-05-07T12:15:07.079Z,17.60
2019-05-07T12:17:39.524Z,17.45
2019-05-07T12:20:12.384Z,17.68
2019-05-07T12:22:48.277Z,17.65
2019-05-07T12:25:21.321Z,17.89
2019-05-07T12:27:54.251Z,18.22
2019-05-07T12:30:45.634Z,18.18
2019-05-07T12:33:17.547Z,18.33
2019-05-07T12:35:48.209Z,17.83
2019-05-07T12:38:21.790Z,17.82
2019-05-07T12:40:52.427Z,17.97
2019-05-07T12:43:24.315Z,18.16
2019-05-07T12:45:55.804Z,18.04
2019-05-07T12:48:26.555Z,18.01
2019-05-07T12:50:57.630Z,17.66
2019-05-07T12:53:31.874Z,17.58
2019-05-07T12:56:03.846Z,17.75
2019-05-07T12:58:34.145Z,18.01
2019-05-07T13:01:07.411Z,17.91
2019-05-07T13:03:42.782Z,17.52
2019-05-07T13:06:13.372Z,17.45
2019-05-07T13:08:44.027Z,17.52
2019-05-07T13:11:14.407Z,17.67
2019-05-07T13:13:44.772Z,17.83
2019-05-07T13:16:15.745Z,17.74
2019-05-07T13:18:46.679Z,17.31
2019-05-07T13:21:17.002Z,17.33
2019-05-07T13:23:47.311Z,17.44
2019-05-07T13:26:17.626Z,17.08
2019-05-07T13:28:48.949Z,17.05
2019-05-07T13:31:22.739Z,17.10
2019-05-07T13:33:56.403Z,17.26
2019-05-07T13:36:27.744Z,17.42
2019-05-07T13:39:07.385Z,17.63
2019-05-07T13:41:43.972Z,17.61
2019-05-07T13:44:25.354Z,17.68
2019-05-07T13:47:02.725Z,17.72
2019-05-07T13:49:33.874Z,17.72
2019-05-07T13:52:05.932Z,18.00
2019-05-07T13:54:38.108Z,18.05
2019-05-07T13:57:08.934Z,18.18
2019-05-07T13:59:42.427Z,18.38
2019-05-07T14:02:15.648Z,18.33
2019-05-07T14:04:46.127Z,18.28
2019-05-07T14:07:16.673Z,18.46
2019-05-07T14:09:48.125Z,18.53
2019-05-07T14:12:20.083Z,18.42
2019-05-07T14:14:52.806Z,18.64
2019-05-07T14:17:23.912Z,18.70
2019-05-07T14:19:54.402Z,19.01
2019-05-07T14:22:25.842Z,18.75
2019-05-07T14:24:57.646Z,18.41
2019-05-07T14:27:28.505Z,18.44
2019-05-07T14:29:59.683Z,18.58
2019-05-07T14:32:31.603Z,18.57
2019-05-07T14:35:05.026Z,18.64
2019-05-07T14:37:37.236Z,18.68
2019-05-07T14:40:09.445Z,18.64
2019-05-07T14:42:41.935Z,18.64
2019-05-07T14:45:14.153Z,18.71
2019-05-07T14:47:45.855Z,18.60
2019-05-07T14:50:17.145Z,18.44
2019-05-07T14:52:47.574Z,18.54
2019-05-07T14:55:18.507Z,18.39
2019-05-07T14:57:49.858Z,18.51
2019-05-07T15:00:22.578Z,18.51
2019-05-07T15:02:53.902Z,18.41
2019-05-07T15:05:27.238Z,18.49
2019-05-07T15:08:08.274Z,18.40
2019-05-07T15:10:32.587Z,18.41
2019-05-07T15:13:03.255Z,18.23
2019-05-07T15:15:33.647Z,18.12
2019-05-07T15:18:07.149Z,18.21
2019-05-07T15:20:37.596Z,18.15
2019-05-07T15:23:27.332Z,18.04
2019-05-07T15:25:58.597Z,17.93
2019-05-07T15:28:34.687Z,17.77
2019-05-07T15:31:09.635Z,17.47
2019-05-07T15:33:41.837Z,17.38
2019-05-07T15:36:12.518Z,17.38
2019-05-07T15:38:43.610Z,17.40
2019-05-07T15:41:15.913Z,17.35
2019-05-07T15:43:46.711Z,17.30
2019-05-07T15:46:17.023Z,17.19
2019-05-07T15:48:48.433Z,17.18
2019-05-07T15:51:19.049Z,17.19
2019-05-07T15:53:52.334Z,17.22
2019-05-07T15:56:22.950Z,17.13
2019-05-07T15:58:53.828Z,17.13
2019-05-07T16:01:24.144Z,16.95
2019-05-07T16:03:55.208Z,17.04
2019-05-07T16:06:25.896Z,17.10
2019-05-07T16:08:58.696Z,17.10
2019-05-07T16:11:32.281Z,17.03
2019-05-07T16:14:06.815Z,16.93
2019-05-07T16:16:47.479Z,17.02
2019-05-07T16:19:26.707Z,16.97
2019-05-07T16:21:59.594Z,16.77
2019-05-07T16:24:31.920Z,16.79
2019-05-07T16:27:05.119Z,16.77
2019-05-07T16:29:35.886Z,16.77
2019-05-07T16:32:07.198Z,16.55
2019-05-07T16:34:37.961Z,16.46
2019-05-07T16:37:08.385Z,16.31
2019-05-07T16:39:38.727Z,16.13
2019-05-07T16:42:10.570Z,16.17
2019-05-07T16:44:41.756Z,16.02
2019-05-07T16:47:13.777Z,15.91
2019-05-07T16:49:44.708Z,15.87
2019-05-07T16:52:17.960Z,15.80
2019-05-07T16:54:48.256Z,15.66
2019-05-07T16:57:36.368Z,15.39
2019-05-07T17:00:09.754Z,15.28
2019-05-07T17:02:45.817Z,15.31
2019-05-07T17:05:16.650Z,15.04
2019-05-07T17:07:57.756Z,14.75
2019-05-07T17:10:27.995Z,14.84
2019-05-07T17:12:58.742Z,14.41
2019-05-07T17:15:30.091Z,14.39
2019-05-07T17:18:02.509Z,14.07
2019-05-07T17:20:33.062Z,14.02
2019-05-07T17:23:03.334Z,13.87
2019-05-07T17:25:39.607Z,13.83
2019-05-07T17:28:12.623Z,13.79
2019-05-07T17:30:43.219Z,13.71
2019-05-07T17:33:13.529Z,13.65
2019-05-07T17:35:46.269Z,13.71
2019-05-07T17:38:17.031Z,13.94
2019-05-07T17:40:47.809Z,13.81
2019-05-07T17:43:18.576Z,13.85
2019-05-07T17:45:49.663Z,13.73
2019-05-07T17:48:20.256Z,14.08
2019-05-07T17:50:59.038Z,14.07
2019-05-07T17:53:29.354Z,14.26
2019-05-07T17:56:02.113Z,14.10
2019-05-07T17:58:33.999Z,13.96
2019-05-07T18:01:05.318Z,14.08
2019-05-07T18:03:38.276Z,13.88
2019-05-07T18:06:09.860Z,13.78
2019-05-07T18:08:40.268Z,14.02
2019-05-07T18:11:20.162Z,13.85
2019-05-07T18:13:42.921Z,14.02
2019-05-07T18:16:24.567Z,13.92
2019-05-07T18:18:54.797Z,13.79
2019-05-07T18:21:25.638Z,13.83
2019-05-07T18:23:56.060Z,13.68
2019-05-07T18:26:30.710Z,13.63
2019-05-07T18:28:59.247Z,13.70
2019-05-07T18:31:34.546Z,13.54
2019-05-07T18:34:04.921Z,13.93
2019-05-07T18:36:35.650Z,13.86
2019-05-07T18:39:07.988Z,13.95
2019-05-07T18:41:38.454Z,13.91
2019-05-07T18:44:12.928Z,13.79
2019-05-07T18:46:41.590Z,13.68
2019-05-07T18:49:12.925Z,13.70
2019-05-07T18:51:46.080Z,13.40
2019-05-07T18:54:27.737Z,13.41
2019-05-07T18:56:48.974Z,13.41
2019-05-07T18:59:22.166Z,13.32
2019-05-07T19:01:55.885Z,13.27
2019-05-07T19:04:26.357Z,13.29
2019-05-07T19:06:57.148Z,13.14
2019-05-07T19:09:28.194Z,13.18
2019-05-07T19:11:58.600Z,13.30
2019-05-07T19:14:28.934Z,13.46
2019-05-07T19:16:59.759Z,13.41
2019-05-07T19:19:32.754Z,13.31
2019-05-07T19:22:04.204Z,13.48
2019-05-07T19:24:44.656Z,13.24
2019-05-07T19:27:07.022Z,12.99
2019-05-07T19:29:37.417Z,12.85
2019-05-07T19:32:12.114Z,12.78
2019-05-07T19:34:42.417Z,12.68
2019-05-07T19:37:14.105Z,12.73
2019-05-07T19:39:45.108Z,12.68
2019-05-07T19:42:17.007Z,12.61
2019-05-07T19:44:47.661Z,12.59
2019-05-07T19:47:18.575Z,12.68
2019-05-07T19:49:48.881Z,12.73
2019-05-07T19:52:23.256Z,12.58
2019-05-07T19:55:01.286Z,12.50
2019-05-07T19:57:27.447Z,12.49
2019-05-07T19:59:58.580Z,12.56
2019-05-07T20:02:33.729Z,12.75
2019-05-07T20:05:05.126Z,12.49
2019-05-07T20:07:35.674Z,12.47
2019-05-07T20:10:09.206Z,12.67
2019-05-07T20:12:42.774Z,12.64
2019-05-07T20:15:13.929Z,12.69
2019-05-07T20:17:44.869Z,12.58
2019-05-07T20:20:17.562Z,12.49
2019-05-07T20:22:48.078Z,12.53
2019-05-07T20:25:19.265Z,12.30
2019-05-07T20:27:52.589Z,12.22
2019-05-07T20:30:22.973Z,12.04
2019-05-07T20:32:53.565Z,12.10
2019-05-07T20:35:23.881Z,11.99
2019-05-07T20:37:54.763Z,11.83
2019-05-07T20:40:25.149Z,11.96
2019-05-07T20:42:56.451Z,11.85
2019-05-07T20:45:26.769Z,11.91
2019-05-07T20:47:57.655Z,12.03
2019-05-07T20:50:27.935Z,12.06
2019-05-07T20:53:01.892Z,12.09
2019-05-07T20:55:36.256Z,11.95
2019-05-07T20:58:07.848Z,11.89
2019-05-07T21:00:39.640Z,11.74
2019-05-07T21:03:13.205Z,11.81
2019-05-07T21:05:43.943Z,11.98
2019-05-07T21:08:15.448Z,11.99
2019-05-07T21:10:46.706Z,12.06
2019-05-07T21:13:27.448Z,11.81
2019-05-07T21:15:49.070Z,11.49
2019-05-07T21:18:19.650Z,11.77
2019-05-07T21:20:49.893Z,11.71
2019-05-07T21:23:22.806Z,11.74
2019-05-07T21:25:53.232Z,11.62
2019-05-07T21:28:24.238Z,11.65
2019-05-07T21:30:55.016Z,11.82
2019-05-07T21:33:25.887Z,11.82
2019-05-07T21:35:56.409Z,11.71
2019-05-07T21:38:26.841Z,11.83
2019-05-07T21:40:58.392Z,11.69
2019-05-07T21:43:29.080Z,11.69
2019-05-07T21:46:02.274Z,11.84
2019-05-07T21:48:32.876Z,11.57
2019-05-07T21:51:03.879Z,11.53
2019-05-07T21:53:37.047Z,11.67
2019-05-07T21:56:12.216Z,11.62
2019-05-07T21:58:46.722Z,11.37
2019-05-07T22:01:35.907Z,11.40
2019-05-07T22:04:07.814Z,11.22
2019-05-07T22:06:38.581Z,11.37
2019-05-07T22:09:10.103Z,11.49
2019-05-07T22:11:42.614Z,11.25
2019-05-07T22:14:13.311Z,11.46
2019-05-07T22:16:43.991Z,11.68
2019-05-07T22:19:14.653Z,11.45
2019-05-07T22:21:45.285Z,11.33
2019-05-07T22:24:16.370Z,11.31
2019-05-07T22:26:47.172Z,11.19
2019-05-07T22:29:17.487Z,11.40
2019-05-07T22:31:49.493Z,11.61
2019-05-07T22:34:30.667Z,11.32
2019-05-07T22:37:04.728Z,11.33
2019-05-07T22:39:49.605Z,11.57
2019-05-07T22:42:24.773Z,11.36
2019-05-07T22:44:55.872Z,11.35
2019-05-07T22:47:26.554Z,11.45
2019-05-07T22:49:57.687Z,11.52
2019-05-07T22:52:28.029Z,11.38
2019-05-07T22:54:59.667Z,11.52
2019-05-07T22:57:34.317Z,11.29
2019-05-07T23:00:12.252Z,11.41
2019-05-07T23:02:44.515Z,11.35
2019-05-07T23:05:15.116Z,11.33
2019-05-07T23:07:45.449Z,11.35
2019-05-07T23:10:16.558Z,11.44
2019-05-07T23:12:47.595Z,11.49
2019-05-07T23:15:19.181Z,11.50
2019-05-07T23:17:49.462Z,11.41
2019-05-07T23:20:24.140Z,11.62
2019-05-07T23:22:53.492Z,11.73
2019-05-07T23:25:26.473Z,11.75
2019-05-07T23:27:56.732Z,11.63
2019-05-07T23:30:33.121Z,11.70
2019-05-07T23:33:04.469Z,11.52
2019-05-07T23:35:35.650Z,11.47
2019-05-07T23:38:05.894Z,11.74
2019-05-07T23:40:39.314Z,11.69
2019-05-07T23:43:14.417Z,11.68
2019-05-07T23:45:44.776Z,11.66
2019-05-07T23:48:16.436Z,11.72
2019-05-07T23:50:47.126Z,11.79
2019-05-07T23:53:18.514Z,11.64
2019-05-07T23:55:51.974Z,11.85
2019-05-07T23:58:22.988Z,11.84
